sensor_id;sensor_type;location;lat;lon;timestamp;P1;durP1;ratioP1;P2;durP2;ratioP2
850;SDS011;412;51.400;7.480;2023-05-24T00:01:33;5.40;;;3.73;;
850;SDS011;412;51.400;7.480;2023-05-24T00:04:01;6.33;;;3.83;;
850;SDS011;412;51.400;7.480;2023-05-24T00:06:28;6.40;;;4.70;;
850;SDS011;412;51.400;7.480;2023-05-24T00:08:54;7.33;;;5.23;;
850;SDS011;412;51.400;7.480;2023-05-24T00:11:20;10.00;;;4.23;;
850;SDS011;412;51.400;7.480;2023-05-24T00:13:46;6.17;;;4.00;;
850;SDS011;412;51.400;7.480;2023-05-24T00:16:13;5.47;;;3.73;;
850;SDS011;412;51.400;7.480;2023-05-24T00:18:39;5.00;;;4.10;;
850;SDS011;412;51.400;7.480;2023-05-24T00:21:06;4.53;;;3.80;;
850;SDS011;412;51.400;7.480;2023-05-24T00:23:36;4.93;;;3.77;;
850;SDS011;412;51.400;7.480;2023-05-24T00:26:02;5.60;;;4.30;;
850;SDS011;412;51.400;7.480;2023-05-24T00:28:32;8.63;;;4.60;;
850;SDS011;412;51.400;7.480;2023-05-24T00:30:58;7.77;;;4.90;;
850;SDS011;412;51.400;7.480;2023-05-24T00:33:24;7.97;;;4.13;;
850;SDS011;412;51.400;7.480;2023-05-24T00:35:50;6.67;;;4.43;;
850;SDS011;412;51.400;7.480;2023-05-24T00:38:22;4.83;;;4.43;;
850;SDS011;412;51.400;7.480;2023-05-24T00:40:49;5.20;;;4.30;;
850;SDS011;412;51.400;7.480;2023-05-24T00:43:15;7.27;;;4.70;;
850;SDS011;412;51.400;7.480;2023-05-24T00:45:40;4.50;;;4.10;;
850;SDS011;412;51.400;7.480;2023-05-24T00:48:06;7.53;;;3.87;;
850;SDS011;412;51.400;7.480;2023-05-24T00:50:33;8.33;;;4.47;;
850;SDS011;412;51.400;7.480;2023-05-24T00:53:01;9.43;;;4.40;;
850;SDS011;412;51.400;7.480;2023-05-24T00:55:28;9.70;;;4.33;;
850;SDS011;412;51.400;7.480;2023-05-24T00:57:57;7.37;;;4.40;;
850;SDS011;412;51.400;7.480;2023-05-24T01:00:23;6.53;;;4.77;;
850;SDS011;412;51.400;7.480;2023-05-24T01:02:52;6.23;;;3.80;;
850;SDS011;412;51.400;7.480;2023-05-24T01:05:19;4.47;;;3.47;;
850;SDS011;412;51.400;7.480;2023-05-24T01:16:05;7.10;;;3.97;;
850;SDS011;412;51.400;7.480;2023-05-24T01:18:38;5.77;;;4.00;;
850;SDS011;412;51.400;7.480;2023-05-24T01:23:46;8.43;;;4.13;;
850;SDS011;412;51.400;7.480;2023-05-24T01:26:36;5.87;;;4.93;;
850;SDS011;412;51.400;7.480;2023-05-24T01:29:07;6.20;;;4.63;;
850;SDS011;412;51.400;7.480;2023-05-24T01:31:34;4.67;;;4.20;;
850;SDS011;412;51.400;7.480;2023-05-24T01:34:01;5.40;;;4.10;;
850;SDS011;412;51.400;7.480;2023-05-24T01:36:27;7.67;;;4.57;;
850;SDS011;412;51.400;7.480;2023-05-24T01:38:52;4.70;;;4.20;;
850;SDS011;412;51.400;7.480;2023-05-24T01:41:25;7.37;;;4.90;;
850;SDS011;412;51.400;7.480;2023-05-24T01:47:08;6.07;;;4.40;;
850;SDS011;412;51.400;7.480;2023-05-24T01:49:48;8.30;;;4.60;;
850;SDS011;412;51.400;7.480;2023-05-24T01:52:21;6.27;;;4.37;;
850;SDS011;412;51.400;7.480;2023-05-24T01:54:55;5.00;;;4.10;;
850;SDS011;412;51.400;7.480;2023-05-24T01:57:22;5.17;;;4.20;;
850;SDS011;412;51.400;7.480;2023-05-24T01:59:50;5.37;;;4.40;;
850;SDS011;412;51.400;7.480;2023-05-24T02:02:17;8.93;;;4.70;;
850;SDS011;412;51.400;7.480;2023-05-24T02:04:43;6.67;;;4.20;;
850;SDS011;412;51.400;7.480;2023-05-24T02:07:08;4.63;;;4.23;;
850;SDS011;412;51.400;7.480;2023-05-24T02:09:34;4.43;;;4.00;;
850;SDS011;412;51.400;7.480;2023-05-24T02:12:00;4.63;;;4.30;;
850;SDS011;412;51.400;7.480;2023-05-24T02:14:26;6.00;;;4.43;;
850;SDS011;412;51.400;7.480;2023-05-24T02:16:52;8.80;;;4.73;;
850;SDS011;412;51.400;7.480;2023-05-24T02:19:22;6.37;;;4.90;;
850;SDS011;412;51.400;7.480;2023-05-24T02:21:49;9.60;;;4.70;;
850;SDS011;412;51.400;7.480;2023-05-24T02:24:15;5.03;;;4.40;;
850;SDS011;412;51.400;7.480;2023-05-24T02:26:42;6.00;;;4.27;;
850;SDS011;412;51.400;7.480;2023-05-24T02:29:08;4.83;;;4.40;;
850;SDS011;412;51.400;7.480;2023-05-24T02:31:35;5.77;;;4.67;;
850;SDS011;412;51.400;7.480;2023-05-24T02:34:00;5.00;;;4.50;;
850;SDS011;412;51.400;7.480;2023-05-24T02:36:26;4.60;;;4.20;;
850;SDS011;412;51.400;7.480;2023-05-24T02:38:52;8.13;;;4.43;;
850;SDS011;412;51.400;7.480;2023-05-24T02:41:18;5.37;;;4.20;;
850;SDS011;412;51.400;7.480;2023-05-24T02:43:44;4.70;;;4.40;;
850;SDS011;412;51.400;7.480;2023-05-24T02:46:11;7.80;;;4.90;;
850;SDS011;412;51.400;7.480;2023-05-24T02:48:37;6.33;;;4.50;;
850;SDS011;412;51.400;7.480;2023-05-24T02:51:03;6.00;;;4.17;;
850;SDS011;412;51.400;7.480;2023-05-24T02:53:29;4.70;;;4.23;;
850;SDS011;412;51.400;7.480;2023-05-24T02:55:55;10.43;;;4.50;;
850;SDS011;412;51.400;7.480;2023-05-24T02:58:22;5.83;;;4.43;;
850;SDS011;412;51.400;7.480;2023-05-24T03:00:48;5.27;;;4.77;;
850;SDS011;412;51.400;7.480;2023-05-24T03:03:14;7.03;;;4.67;;
850;SDS011;412;51.400;7.480;2023-05-24T03:05:42;5.97;;;3.60;;
850;SDS011;412;51.400;7.480;2023-05-24T03:08:07;6.90;;;4.40;;
850;SDS011;412;51.400;7.480;2023-05-24T03:10:33;5.97;;;3.80;;
850;SDS011;412;51.400;7.480;2023-05-24T03:12:59;7.50;;;4.40;;
850;SDS011;412;51.400;7.480;2023-05-24T03:15:24;6.73;;;4.23;;
850;SDS011;412;51.400;7.480;2023-05-24T03:17:50;7.03;;;4.80;;
850;SDS011;412;51.400;7.480;2023-05-24T03:20:16;4.87;;;4.37;;
850;SDS011;412;51.400;7.480;2023-05-24T03:22:45;6.33;;;5.17;;
850;SDS011;412;51.400;7.480;2023-05-24T03:25:11;7.13;;;5.60;;
850;SDS011;412;51.400;7.480;2023-05-24T03:27:37;6.20;;;4.80;;
850;SDS011;412;51.400;7.480;2023-05-24T03:30:03;6.50;;;5.23;;
850;SDS011;412;51.400;7.480;2023-05-24T03:32:31;6.03;;;5.33;;
850;SDS011;412;51.400;7.480;2023-05-24T03:34:57;8.53;;;4.90;;
850;SDS011;412;51.400;7.480;2023-05-24T03:37:25;6.90;;;5.03;;
850;SDS011;412;51.400;7.480;2023-05-24T03:39:51;6.50;;;4.60;;
850;SDS011;412;51.400;7.480;2023-05-24T03:42:17;9.00;;;4.47;;
850;SDS011;412;51.400;7.480;2023-05-24T03:44:43;8.40;;;5.53;;
850;SDS011;412;51.400;7.480;2023-05-24T03:47:09;8.33;;;5.07;;
850;SDS011;412;51.400;7.480;2023-05-24T03:49:35;5.90;;;5.40;;
850;SDS011;412;51.400;7.480;2023-05-24T03:52:00;5.43;;;5.03;;
850;SDS011;412;51.400;7.480;2023-05-24T03:54:26;6.57;;;5.73;;
850;SDS011;412;51.400;7.480;2023-05-24T03:56:52;6.17;;;5.57;;
850;SDS011;412;51.400;7.480;2023-05-24T03:59:18;5.17;;;4.73;;
850;SDS011;412;51.400;7.480;2023-05-24T04:01:44;5.70;;;4.70;;
850;SDS011;412;51.400;7.480;2023-05-24T04:04:10;5.33;;;4.20;;
850;SDS011;412;51.400;7.480;2023-05-24T04:06:35;4.87;;;4.47;;
850;SDS011;412;51.400;7.480;2023-05-24T04:09:02;6.40;;;5.20;;
850;SDS011;412;51.400;7.480;2023-05-24T04:11:30;5.67;;;5.13;;
850;SDS011;412;51.400;7.480;2023-05-24T04:13:56;5.53;;;4.90;;
850;SDS011;412;51.400;7.480;2023-05-24T04:16:25;5.73;;;5.33;;
850;SDS011;412;51.400;7.480;2023-05-24T04:18:52;6.77;;;6.10;;
850;SDS011;412;51.400;7.480;2023-05-24T04:21:21;6.07;;;5.40;;
850;SDS011;412;51.400;7.480;2023-05-24T04:23:47;7.43;;;5.50;;
850;SDS011;412;51.400;7.480;2023-05-24T04:26:13;6.37;;;5.67;;
850;SDS011;412;51.400;7.480;2023-05-24T04:28:39;6.43;;;4.87;;
850;SDS011;412;51.400;7.480;2023-05-24T04:31:06;7.53;;;5.37;;
850;SDS011;412;51.400;7.480;2023-05-24T04:33:33;6.13;;;4.60;;
850;SDS011;412;51.400;7.480;2023-05-24T04:35:59;6.90;;;4.80;;
850;SDS011;412;51.400;7.480;2023-05-24T04:38:26;7.40;;;5.20;;
850;SDS011;412;51.400;7.480;2023-05-24T04:40:59;5.60;;;5.03;;
850;SDS011;412;51.400;7.480;2023-05-24T04:43:25;7.07;;;4.60;;
850;SDS011;412;51.400;7.480;2023-05-24T04:45:51;4.40;;;4.00;;
850;SDS011;412;51.400;7.480;2023-05-24T04:48:21;8.27;;;5.33;;
850;SDS011;412;51.400;7.480;2023-05-24T04:50:51;5.80;;;5.30;;
850;SDS011;412;51.400;7.480;2023-05-24T04:53:21;7.43;;;4.93;;
850;SDS011;412;51.400;7.480;2023-05-24T04:55:47;6.40;;;4.67;;
850;SDS011;412;51.400;7.480;2023-05-24T04:58:14;5.13;;;4.63;;
850;SDS011;412;51.400;7.480;2023-05-24T05:00:41;9.27;;;5.23;;
850;SDS011;412;51.400;7.480;2023-05-24T05:03:08;7.00;;;5.63;;
850;SDS011;412;51.400;7.480;2023-05-24T05:05:34;8.73;;;6.10;;
850;SDS011;412;51.400;7.480;2023-05-24T05:08:00;6.33;;;5.83;;
850;SDS011;412;51.400;7.480;2023-05-24T05:10:26;12.53;;;6.73;;
850;SDS011;412;51.400;7.480;2023-05-24T05:12:56;9.43;;;6.73;;
850;SDS011;412;51.400;7.480;2023-05-24T05:15:22;7.33;;;6.07;;
850;SDS011;412;51.400;7.480;2023-05-24T05:17:50;10.17;;;6.07;;
850;SDS011;412;51.400;7.480;2023-05-24T05:20:18;9.07;;;6.10;;
850;SDS011;412;51.400;7.480;2023-05-24T05:22:44;11.70;;;6.30;;
850;SDS011;412;51.400;7.480;2023-05-24T05:25:11;6.53;;;5.70;;
850;SDS011;412;51.400;7.480;2023-05-24T05:27:37;13.03;;;6.57;;
850;SDS011;412;51.400;7.480;2023-05-24T05:30:02;10.13;;;6.17;;
850;SDS011;412;51.400;7.480;2023-05-24T05:32:28;10.17;;;6.83;;
850;SDS011;412;51.400;7.480;2023-05-24T05:34:54;8.60;;;6.50;;
850;SDS011;412;51.400;7.480;2023-05-24T05:37:20;12.30;;;6.53;;
850;SDS011;412;51.400;7.480;2023-05-24T05:39:47;11.50;;;6.23;;
850;SDS011;412;51.400;7.480;2023-05-24T05:42:12;10.57;;;6.30;;
850;SDS011;412;51.400;7.480;2023-05-24T05:44:38;12.20;;;5.20;;
850;SDS011;412;51.400;7.480;2023-05-24T05:47:04;10.33;;;6.53;;
850;SDS011;412;51.400;7.480;2023-05-24T05:49:31;10.53;;;6.60;;
850;SDS011;412;51.400;7.480;2023-05-24T05:52:00;7.03;;;6.33;;
850;SDS011;412;51.400;7.480;2023-05-24T05:54:27;9.93;;;6.20;;
850;SDS011;412;51.400;7.480;2023-05-24T05:56:53;13.43;;;6.73;;
850;SDS011;412;51.400;7.480;2023-05-24T05:59:18;11.90;;;8.70;;
850;SDS011;412;51.400;7.480;2023-05-24T06:01:44;10.33;;;6.43;;
850;SDS011;412;51.400;7.480;2023-05-24T06:04:12;7.80;;;6.60;;
850;SDS011;412;51.400;7.480;2023-05-24T06:06:41;8.23;;;5.93;;
850;SDS011;412;51.400;7.480;2023-05-24T06:09:13;10.40;;;7.50;;
850;SDS011;412;51.400;7.480;2023-05-24T06:11:40;9.50;;;6.83;;
850;SDS011;412;51.400;7.480;2023-05-24T06:14:09;10.27;;;7.13;;
850;SDS011;412;51.400;7.480;2023-05-24T06:16:36;10.63;;;7.30;;
850;SDS011;412;51.400;7.480;2023-05-24T06:19:06;12.50;;;6.70;;
850;SDS011;412;51.400;7.480;2023-05-24T06:21:32;10.50;;;6.63;;
850;SDS011;412;51.400;7.480;2023-05-24T06:23:58;9.87;;;6.80;;
850;SDS011;412;51.400;7.480;2023-05-24T06:26:26;14.10;;;7.00;;
850;SDS011;412;51.400;7.480;2023-05-24T06:28:52;9.00;;;6.30;;
850;SDS011;412;51.400;7.480;2023-05-24T06:31:18;11.90;;;7.10;;
850;SDS011;412;51.400;7.480;2023-05-24T06:33:43;13.30;;;5.87;;
850;SDS011;412;51.400;7.480;2023-05-24T06:36:09;11.10;;;5.90;;
850;SDS011;412;51.400;7.480;2023-05-24T06:38:35;11.27;;;5.97;;
850;SDS011;412;51.400;7.480;2023-05-24T06:41:02;11.13;;;6.10;;
850;SDS011;412;51.400;7.480;2023-05-24T06:43:27;8.53;;;5.27;;
850;SDS011;412;51.400;7.480;2023-05-24T06:45:54;12.70;;;5.37;;
850;SDS011;412;51.400;7.480;2023-05-24T06:48:20;12.33;;;6.00;;
850;SDS011;412;51.400;7.480;2023-05-24T06:50:46;13.07;;;5.10;;
850;SDS011;412;51.400;7.480;2023-05-24T06:53:12;10.70;;;5.33;;
850;SDS011;412;51.400;7.480;2023-05-24T06:55:37;15.97;;;6.60;;
850;SDS011;412;51.400;7.480;2023-05-24T06:58:03;10.90;;;5.87;;
850;SDS011;412;51.400;7.480;2023-05-24T07:00:30;13.73;;;5.40;;
850;SDS011;412;51.400;7.480;2023-05-24T07:02:56;13.03;;;6.13;;
850;SDS011;412;51.400;7.480;2023-05-24T07:05:22;15.80;;;5.60;;
850;SDS011;412;51.400;7.480;2023-05-24T07:07:48;10.20;;;5.83;;
850;SDS011;412;51.400;7.480;2023-05-24T07:10:32;11.90;;;5.60;;
850;SDS011;412;51.400;7.480;2023-05-24T07:12:58;12.00;;;5.77;;
850;SDS011;412;51.400;7.480;2023-05-24T07:15:23;8.70;;;5.60;;
850;SDS011;412;51.400;7.480;2023-05-24T07:17:49;11.37;;;6.70;;
850;SDS011;412;51.400;7.480;2023-05-24T07:20:15;12.40;;;6.53;;
850;SDS011;412;51.400;7.480;2023-05-24T07:22:41;12.30;;;6.20;;
850;SDS011;412;51.400;7.480;2023-05-24T07:25:08;13.67;;;6.47;;
850;SDS011;412;51.400;7.480;2023-05-24T07:27:34;9.27;;;5.73;;
850;SDS011;412;51.400;7.480;2023-05-24T07:30:00;13.50;;;6.40;;
850;SDS011;412;51.400;7.480;2023-05-24T07:32:27;10.07;;;4.87;;
850;SDS011;412;51.400;7.480;2023-05-24T07:34:53;10.07;;;5.23;;
850;SDS011;412;51.400;7.480;2023-05-24T07:37:19;12.87;;;7.10;;
850;SDS011;412;51.400;7.480;2023-05-24T07:39:48;8.93;;;4.53;;
850;SDS011;412;51.400;7.480;2023-05-24T07:42:14;13.20;;;5.90;;
850;SDS011;412;51.400;7.480;2023-05-24T07:44:40;12.10;;;5.37;;
850;SDS011;412;51.400;7.480;2023-05-24T07:47:06;17.17;;;6.37;;
850;SDS011;412;51.400;7.480;2023-05-24T07:49:32;13.07;;;5.30;;
850;SDS011;412;51.400;7.480;2023-05-24T07:51:57;9.50;;;5.70;;
850;SDS011;412;51.400;7.480;2023-05-24T07:54:24;14.83;;;6.90;;
850;SDS011;412;51.400;7.480;2023-05-24T07:56:50;8.57;;;4.80;;
850;SDS011;412;51.400;7.480;2023-05-24T07:59:16;8.90;;;4.97;;
850;SDS011;412;51.400;7.480;2023-05-24T08:01:43;12.80;;;5.90;;
850;SDS011;412;51.400;7.480;2023-05-24T08:04:08;9.33;;;4.80;;
850;SDS011;412;51.400;7.480;2023-05-24T08:06:34;10.27;;;5.43;;
850;SDS011;412;51.400;7.480;2023-05-24T08:09:03;10.60;;;6.07;;
850;SDS011;412;51.400;7.480;2023-05-24T08:11:29;10.63;;;5.40;;
850;SDS011;412;51.400;7.480;2023-05-24T08:13:57;10.47;;;5.27;;
850;SDS011;412;51.400;7.480;2023-05-24T08:16:22;13.07;;;6.03;;
850;SDS011;412;51.400;7.480;2023-05-24T08:18:48;10.03;;;5.50;;
850;SDS011;412;51.400;7.480;2023-05-24T08:21:14;9.13;;;5.70;;
850;SDS011;412;51.400;7.480;2023-05-24T08:23:40;8.07;;;5.30;;
850;SDS011;412;51.400;7.480;2023-05-24T08:26:06;12.03;;;7.00;;
850;SDS011;412;51.400;7.480;2023-05-24T08:28:33;8.10;;;5.70;;
850;SDS011;412;51.400;7.480;2023-05-24T08:30:59;8.93;;;6.10;;
850;SDS011;412;51.400;7.480;2023-05-24T08:33:25;11.60;;;5.33;;
850;SDS011;412;51.400;7.480;2023-05-24T08:35:51;9.50;;;5.97;;
850;SDS011;412;51.400;7.480;2023-05-24T08:38:17;10.23;;;5.90;;
850;SDS011;412;51.400;7.480;2023-05-24T08:40:43;7.90;;;5.00;;
850;SDS011;412;51.400;7.480;2023-05-24T08:43:09;8.57;;;5.30;;
850;SDS011;412;51.400;7.480;2023-05-24T08:45:38;10.33;;;4.93;;
850;SDS011;412;51.400;7.480;2023-05-24T08:48:04;10.03;;;5.17;;
850;SDS011;412;51.400;7.480;2023-05-24T08:50:31;9.67;;;5.47;;
850;SDS011;412;51.400;7.480;2023-05-24T08:52:58;11.47;;;5.47;;
850;SDS011;412;51.400;7.480;2023-05-24T08:55:26;7.97;;;5.40;;
850;SDS011;412;51.400;7.480;2023-05-24T08:57:54;8.80;;;5.63;;
850;SDS011;412;51.400;7.480;2023-05-24T09:00:20;11.90;;;7.50;;
850;SDS011;412;51.400;7.480;2023-05-24T09:02:47;6.77;;;5.90;;
850;SDS011;412;51.400;7.480;2023-05-24T09:05:14;8.10;;;5.33;;
850;SDS011;412;51.400;7.480;2023-05-24T09:07:41;5.20;;;4.70;;
850;SDS011;412;51.400;7.480;2023-05-24T09:10:09;10.67;;;5.50;;
850;SDS011;412;51.400;7.480;2023-05-24T09:12:36;13.03;;;6.10;;
850;SDS011;412;51.400;7.480;2023-05-24T09:15:03;10.40;;;6.23;;
850;SDS011;412;51.400;7.480;2023-05-24T09:17:30;8.23;;;5.73;;
850;SDS011;412;51.400;7.480;2023-05-24T09:19:56;11.30;;;5.90;;
850;SDS011;412;51.400;7.480;2023-05-24T09:22:26;11.20;;;5.70;;
850;SDS011;412;51.400;7.480;2023-05-24T09:25:01;9.20;;;5.30;;
850;SDS011;412;51.400;7.480;2023-05-24T09:27:30;10.60;;;5.80;;
850;SDS011;412;51.400;7.480;2023-05-24T09:29:56;9.93;;;5.90;;
850;SDS011;412;51.400;7.480;2023-05-24T09:32:23;12.87;;;5.93;;
850;SDS011;412;51.400;7.480;2023-05-24T09:34:52;8.37;;;5.40;;
850;SDS011;412;51.400;7.480;2023-05-24T09:37:22;11.50;;;5.60;;
850;SDS011;412;51.400;7.480;2023-05-24T09:39:51;8.30;;;5.87;;
850;SDS011;412;51.400;7.480;2023-05-24T09:42:18;8.90;;;5.27;;
850;SDS011;412;51.400;7.480;2023-05-24T09:45:02;9.07;;;5.50;;
850;SDS011;412;51.400;7.480;2023-05-24T09:47:33;10.57;;;5.87;;
850;SDS011;412;51.400;7.480;2023-05-24T09:50:13;8.43;;;5.43;;
850;SDS011;412;51.400;7.480;2023-05-24T09:52:43;9.97;;;6.27;;
850;SDS011;412;51.400;7.480;2023-05-24T09:55:13;7.27;;;6.57;;
850;SDS011;412;51.400;7.480;2023-05-24T09:57:40;8.53;;;6.00;;
850;SDS011;412;51.400;7.480;2023-05-24T10:00:07;8.40;;;6.10;;
850;SDS011;412;51.400;7.480;2023-05-24T10:02:44;8.47;;;5.73;;
850;SDS011;412;51.400;7.480;2023-05-24T10:05:11;7.03;;;4.87;;
850;SDS011;412;51.400;7.480;2023-05-24T10:07:37;8.37;;;5.90;;
850;SDS011;412;51.400;7.480;2023-05-24T10:10:05;9.67;;;5.47;;
850;SDS011;412;51.400;7.480;2023-05-24T10:12:32;9.73;;;6.43;;
850;SDS011;412;51.400;7.480;2023-05-24T10:14:59;9.90;;;6.13;;
850;SDS011;412;51.400;7.480;2023-05-24T10:17:25;9.60;;;6.00;;
850;SDS011;412;51.400;7.480;2023-05-24T10:19:52;11.03;;;5.43;;
850;SDS011;412;51.400;7.480;2023-05-24T10:22:18;13.40;;;6.07;;
850;SDS011;412;51.400;7.480;2023-05-24T10:24:48;10.97;;;6.30;;
850;SDS011;412;51.400;7.480;2023-05-24T10:27:19;9.40;;;6.30;;
850;SDS011;412;51.400;7.480;2023-05-24T10:32:38;10.63;;;5.97;;
850;SDS011;412;51.400;7.480;2023-05-24T10:35:06;13.40;;;5.90;;
850;SDS011;412;51.400;7.480;2023-05-24T10:37:36;10.60;;;6.03;;
850;SDS011;412;51.400;7.480;2023-05-24T10:40:02;10.80;;;6.10;;
850;SDS011;412;51.400;7.480;2023-05-24T10:42:30;10.83;;;5.90;;
850;SDS011;412;51.400;7.480;2023-05-24T10:44:57;15.77;;;6.83;;
850;SDS011;412;51.400;7.480;2023-05-24T10:47:24;13.00;;;6.50;;
850;SDS011;412;51.400;7.480;2023-05-24T10:49:56;10.63;;;6.37;;
850;SDS011;412;51.400;7.480;2023-05-24T10:52:32;7.53;;;6.37;;
850;SDS011;412;51.400;7.480;2023-05-24T10:57:28;10.10;;;5.20;;
850;SDS011;412;51.400;7.480;2023-05-24T10:59:56;11.40;;;5.50;;
850;SDS011;412;51.400;7.480;2023-05-24T11:02:22;12.20;;;6.00;;
850;SDS011;412;51.400;7.480;2023-05-24T11:04:52;6.37;;;5.17;;
850;SDS011;412;51.400;7.480;2023-05-24T11:07:26;9.30;;;5.77;;
850;SDS011;412;51.400;7.480;2023-05-24T11:09:54;7.40;;;6.10;;
850;SDS011;412;51.400;7.480;2023-05-24T11:12:23;9.17;;;5.90;;
850;SDS011;412;51.400;7.480;2023-05-24T11:14:56;11.10;;;6.00;;
850;SDS011;412;51.400;7.480;2023-05-24T11:17:22;9.10;;;5.20;;
850;SDS011;412;51.400;7.480;2023-05-24T11:19:49;6.80;;;5.00;;
850;SDS011;412;51.400;7.480;2023-05-24T11:22:16;8.83;;;5.90;;
850;SDS011;412;51.400;7.480;2023-05-24T11:24:45;8.63;;;5.87;;
850;SDS011;412;51.400;7.480;2023-05-24T11:27:11;11.80;;;6.97;;
850;SDS011;412;51.400;7.480;2023-05-24T11:29:44;9.47;;;6.57;;
850;SDS011;412;51.400;7.480;2023-05-24T11:32:19;8.30;;;5.13;;
850;SDS011;412;51.400;7.480;2023-05-24T11:34:45;9.67;;;6.17;;
850;SDS011;412;51.400;7.480;2023-05-24T11:37:11;10.83;;;6.53;;
850;SDS011;412;51.400;7.480;2023-05-24T11:39:37;10.33;;;6.33;;
850;SDS011;412;51.400;7.480;2023-05-24T11:42:04;9.30;;;6.37;;
850;SDS011;412;51.400;7.480;2023-05-24T11:44:34;10.70;;;7.03;;
850;SDS011;412;51.400;7.480;2023-05-24T11:47:03;7.97;;;4.77;;
850;SDS011;412;51.400;7.480;2023-05-24T11:49:30;9.03;;;5.20;;
850;SDS011;412;51.400;7.480;2023-05-24T11:51:57;8.17;;;5.10;;
850;SDS011;412;51.400;7.480;2023-05-24T11:54:24;8.60;;;6.00;;
850;SDS011;412;51.400;7.480;2023-05-24T11:56:51;9.10;;;5.77;;
850;SDS011;412;51.400;7.480;2023-05-24T11:59:25;8.23;;;5.17;;
850;SDS011;412;51.400;7.480;2023-05-24T12:01:56;9.87;;;5.10;;
850;SDS011;412;51.400;7.480;2023-05-24T12:04:24;11.73;;;5.60;;
850;SDS011;412;51.400;7.480;2023-05-24T12:06:50;8.70;;;5.93;;
850;SDS011;412;51.400;7.480;2023-05-24T12:09:16;12.60;;;5.33;;
850;SDS011;412;51.400;7.480;2023-05-24T12:11:45;9.27;;;6.03;;
850;SDS011;412;51.400;7.480;2023-05-24T12:14:15;8.20;;;6.00;;
850;SDS011;412;51.400;7.480;2023-05-24T12:16:43;8.40;;;5.47;;
850;SDS011;412;51.400;7.480;2023-05-24T12:19:11;8.23;;;5.40;;
850;SDS011;412;51.400;7.480;2023-05-24T12:21:41;8.90;;;5.60;;
850;SDS011;412;51.400;7.480;2023-05-24T12:24:11;6.97;;;6.20;;
850;SDS011;412;51.400;7.480;2023-05-24T12:26:46;6.10;;;5.60;;
850;SDS011;412;51.400;7.480;2023-05-24T12:29:15;11.50;;;6.77;;
850;SDS011;412;51.400;7.480;2023-05-24T12:31:46;8.20;;;5.53;;
850;SDS011;412;51.400;7.480;2023-05-24T12:34:17;11.43;;;5.80;;
850;SDS011;412;51.400;7.480;2023-05-24T12:36:43;7.10;;;6.37;;
850;SDS011;412;51.400;7.480;2023-05-24T12:39:20;11.33;;;6.23;;
850;SDS011;412;51.400;7.480;2023-05-24T12:41:51;7.70;;;5.60;;
850;SDS011;412;51.400;7.480;2023-05-24T12:44:22;10.30;;;6.03;;
850;SDS011;412;51.400;7.480;2023-05-24T12:46:49;9.90;;;8.10;;
850;SDS011;412;51.400;7.480;2023-05-24T12:49:17;11.03;;;7.00;;
850;SDS011;412;51.400;7.480;2023-05-24T12:51:43;12.83;;;8.50;;
850;SDS011;412;51.400;7.480;2023-05-24T12:54:08;11.50;;;5.90;;
850;SDS011;412;51.400;7.480;2023-05-24T12:56:34;7.73;;;6.10;;
850;SDS011;412;51.400;7.480;2023-05-24T12:59:00;9.87;;;6.57;;
850;SDS011;412;51.400;7.480;2023-05-24T13:01:26;10.17;;;6.40;;
850;SDS011;412;51.400;7.480;2023-05-24T13:03:52;12.17;;;6.03;;
850;SDS011;412;51.400;7.480;2023-05-24T13:06:18;9.13;;;6.93;;
850;SDS011;412;51.400;7.480;2023-05-24T13:08:43;11.53;;;7.17;;
850;SDS011;412;51.400;7.480;2023-05-24T13:11:09;9.10;;;7.00;;
850;SDS011;412;51.400;7.480;2023-05-24T13:13:35;14.77;;;8.10;;
850;SDS011;412;51.400;7.480;2023-05-24T13:16:02;13.30;;;7.10;;
850;SDS011;412;51.400;7.480;2023-05-24T13:18:33;10.07;;;7.00;;
850;SDS011;412;51.400;7.480;2023-05-24T13:20:59;12.07;;;7.80;;
850;SDS011;412;51.400;7.480;2023-05-24T13:23:25;11.60;;;7.80;;
850;SDS011;412;51.400;7.480;2023-05-24T13:25:51;8.10;;;7.20;;
850;SDS011;412;51.400;7.480;2023-05-24T13:28:18;10.80;;;7.10;;
850;SDS011;412;51.400;7.480;2023-05-24T13:30:45;12.40;;;7.07;;
850;SDS011;412;51.400;7.480;2023-05-24T13:33:11;8.17;;;7.00;;
850;SDS011;412;51.400;7.480;2023-05-24T13:35:37;10.43;;;7.07;;
850;SDS011;412;51.400;7.480;2023-05-24T13:38:04;9.10;;;6.87;;
850;SDS011;412;51.400;7.480;2023-05-24T13:40:30;9.80;;;6.90;;
850;SDS011;412;51.400;7.480;2023-05-24T13:42:56;11.20;;;7.73;;
850;SDS011;412;51.400;7.480;2023-05-24T13:45:22;12.23;;;7.97;;
850;SDS011;412;51.400;7.480;2023-05-24T13:47:48;12.67;;;8.90;;
850;SDS011;412;51.400;7.480;2023-05-24T13:50:15;14.07;;;8.33;;
850;SDS011;412;51.400;7.480;2023-05-24T13:52:41;11.57;;;8.30;;
850;SDS011;412;51.400;7.480;2023-05-24T13:55:08;13.20;;;9.20;;
850;SDS011;412;51.400;7.480;2023-05-24T13:57:34;12.97;;;8.17;;
850;SDS011;412;51.400;7.480;2023-05-24T14:00:00;15.43;;;9.27;;
850;SDS011;412;51.400;7.480;2023-05-24T14:02:28;19.60;;;8.97;;
850;SDS011;412;51.400;7.480;2023-05-24T14:04:54;14.93;;;10.23;;
850;SDS011;412;51.400;7.480;2023-05-24T14:07:19;11.87;;;8.23;;
850;SDS011;412;51.400;7.480;2023-05-24T14:09:45;12.67;;;8.07;;
850;SDS011;412;51.400;7.480;2023-05-24T14:12:11;15.27;;;8.10;;
850;SDS011;412;51.400;7.480;2023-05-24T14:14:38;13.93;;;8.50;;
850;SDS011;412;51.400;7.480;2023-05-24T14:17:03;8.70;;;7.80;;
850;SDS011;412;51.400;7.480;2023-05-24T14:19:29;8.83;;;7.87;;
850;SDS011;412;51.400;7.480;2023-05-24T14:21:55;10.93;;;9.00;;
850;SDS011;412;51.400;7.480;2023-05-24T14:24:21;8.57;;;7.70;;
850;SDS011;412;51.400;7.480;2023-05-24T14:26:48;10.53;;;7.10;;
850;SDS011;412;51.400;7.480;2023-05-24T14:29:13;53.83;;;36.00;;
850;SDS011;412;51.400;7.480;2023-05-24T14:31:39;55.00;;;39.50;;
850;SDS011;412;51.400;7.480;2023-05-24T14:34:08;18.27;;;9.60;;
850;SDS011;412;51.400;7.480;2023-05-24T14:36:37;9.90;;;8.10;;
850;SDS011;412;51.400;7.480;2023-05-24T14:39:04;9.90;;;8.00;;
850;SDS011;412;51.400;7.480;2023-05-24T14:41:33;11.57;;;7.57;;
850;SDS011;412;51.400;7.480;2023-05-24T14:43:59;10.90;;;8.60;;
850;SDS011;412;51.400;7.480;2023-05-24T14:46:25;12.23;;;8.40;;
850;SDS011;412;51.400;7.480;2023-05-24T14:48:51;14.77;;;8.20;;
850;SDS011;412;51.400;7.480;2023-05-24T14:51:17;13.57;;;8.30;;
850;SDS011;412;51.400;7.480;2023-05-24T14:53:43;12.57;;;8.03;;
850;SDS011;412;51.400;7.480;2023-05-24T14:56:09;13.67;;;9.30;;
850;SDS011;412;51.400;7.480;2023-05-24T14:58:38;15.60;;;8.70;;
850;SDS011;412;51.400;7.480;2023-05-24T15:01:04;11.27;;;8.80;;
850;SDS011;412;51.400;7.480;2023-05-24T15:03:31;9.37;;;7.80;;
850;SDS011;412;51.400;7.480;2023-05-24T15:05:56;18.70;;;9.80;;
850;SDS011;412;51.400;7.480;2023-05-24T15:08:23;15.60;;;10.03;;
850;SDS011;412;51.400;7.480;2023-05-24T15:10:48;13.03;;;8.57;;
850;SDS011;412;51.400;7.480;2023-05-24T15:13:15;12.87;;;9.83;;
850;SDS011;412;51.400;7.480;2023-05-24T15:15:41;14.37;;;9.33;;
850;SDS011;412;51.400;7.480;2023-05-24T15:18:08;13.73;;;9.27;;
850;SDS011;412;51.400;7.480;2023-05-24T15:20:34;9.70;;;8.00;;
850;SDS011;412;51.400;7.480;2023-05-24T15:23:01;13.67;;;9.40;;
850;SDS011;412;51.400;7.480;2023-05-24T15:25:27;14.87;;;8.60;;
850;SDS011;412;51.400;7.480;2023-05-24T15:27:53;12.50;;;9.03;;
850;SDS011;412;51.400;7.480;2023-05-24T15:30:20;15.17;;;9.03;;
850;SDS011;412;51.400;7.480;2023-05-24T15:32:48;11.00;;;9.90;;
850;SDS011;412;51.400;7.480;2023-05-24T15:35:14;15.93;;;10.57;;
850;SDS011;412;51.400;7.480;2023-05-24T15:37:41;10.80;;;8.67;;
850;SDS011;412;51.400;7.480;2023-05-24T15:40:08;12.97;;;9.10;;
850;SDS011;412;51.400;7.480;2023-05-24T15:42:34;13.10;;;11.10;;
850;SDS011;412;51.400;7.480;2023-05-24T15:45:00;12.60;;;9.00;;
850;SDS011;412;51.400;7.480;2023-05-24T15:47:26;13.43;;;9.73;;
850;SDS011;412;51.400;7.480;2023-05-24T15:49:54;10.33;;;9.10;;
850;SDS011;412;51.400;7.480;2023-05-24T15:52:20;14.80;;;10.40;;
850;SDS011;412;51.400;7.480;2023-05-24T15:54:46;45.20;;;35.60;;
850;SDS011;412;51.400;7.480;2023-05-24T15:57:12;74.37;;;46.27;;